sensor_id;sensor_type;location;lat;lon;timestamp;P1;durP1;ratioP1;P2;durP2;ratioP2
41783;SDS011;27458;53.236;-6.622;2022-08-19T00:01:16;13.85;;;2.65;;
41783;SDS011;27458;53.236;-6.622;2022-08-19T00:03:42;15.07;;;3.00;;
41783;SDS011;27458;53.236;-6.622;2022-08-19T00:06:08;20.67;;;3.13;;
41783;SDS011;27458;53.236;-6.622;2022-08-19T00:08:35;14.07;;;3.20;;
41783;SDS011;27458;53.236;-6.622;2022-08-19T00:11:01;16.55;;;2.90;;
41783;SDS011;27458;53.236;-6.622;2022-08-19T00:16:24;16.98;;;2.67;;
41783;SDS011;27458;53.236;-6.622;2022-08-19T00:18:50;11.35;;;3.03;;
41783;SDS011;27458;53.236;-6.622;2022-08-19T00:21:16;23.63;;;3.50;;
41783;SDS011;27458;53.236;-6.622;2022-08-19T00:23:42;18.65;;;3.53;;
41783;SDS011;27458;53.236;-6.622;2022-08-19T00:26:09;11.80;;;2.53;;
41783;SDS011;27458;53.236;-6.622;2022-08-19T00:28:35;17.35;;;3.80;;
41783;SDS011;27458;53.236;-6.622;2022-08-19T00:31:02;22.33;;;4.03;;
41783;SDS011;27458;53.236;-6.622;2022-08-19T00:33:29;17.17;;;3.08;;
41783;SDS011;27458;53.236;-6.622;2022-08-19T00:36:00;17.65;;;3.05;;
41783;SDS011;27458;53.236;-6.622;2022-08-19T00:38:26;16.67;;;3.00;;
41783;SDS011;27458;53.236;-6.622;2022-08-19T00:40:53;15.82;;;3.35;;
41783;SDS011;27458;53.236;-6.622;2022-08-19T00:43:21;17.33;;;3.15;;
41783;SDS011;27458;53.236;-6.622;2022-08-19T00:45:48;20.30;;;2.88;;
41783;SDS011;27458;53.236;-6.622;2022-08-19T00:48:16;20.27;;;3.20;;
41783;SDS011;27458;53.236;-6.622;2022-08-19T00:50:43;19.33;;;3.25;;
41783;SDS011;27458;53.236;-6.622;2022-08-19T00:53:11;17.05;;;3.03;;
41783;SDS011;27458;53.236;-6.622;2022-08-19T00:55:40;20.70;;;3.15;;
41783;SDS011;27458;53.236;-6.622;2022-08-19T00:58:10;16.52;;;3.33;;
41783;SDS011;27458;53.236;-6.622;2022-08-19T01:00:41;20.77;;;3.63;;
41783;SDS011;27458;53.236;-6.622;2022-08-19T01:03:08;15.40;;;3.00;;
41783;SDS011;27458;53.236;-6.622;2022-08-19T01:05:36;17.23;;;2.28;;
41783;SDS011;27458;53.236;-6.622;2022-08-19T01:08:04;12.90;;;2.63;;
41783;SDS011;27458;53.236;-6.622;2022-08-19T01:13:27;25.92;;;3.80;;
41783;SDS011;27458;53.236;-6.622;2022-08-19T01:16:01;16.77;;;2.63;;
41783;SDS011;27458;53.236;-6.622;2022-08-19T01:18:31;17.17;;;3.30;;
41783;SDS011;27458;53.236;-6.622;2022-08-19T01:21:02;21.60;;;3.42;;
41783;SDS011;27458;53.236;-6.622;2022-08-19T01:23:34;15.32;;;3.13;;
41783;SDS011;27458;53.236;-6.622;2022-08-19T01:26:10;16.63;;;2.67;;
41783;SDS011;27458;53.236;-6.622;2022-08-19T01:28:38;22.23;;;3.13;;
41783;SDS011;27458;53.236;-6.622;2022-08-19T01:31:05;21.23;;;3.78;;
41783;SDS011;27458;53.236;-6.622;2022-08-19T01:33:32;19.42;;;3.20;;
41783;SDS011;27458;53.236;-6.622;2022-08-19T01:36:05;23.98;;;3.50;;
41783;SDS011;27458;53.236;-6.622;2022-08-19T01:38:36;27.85;;;3.83;;
41783;SDS011;27458;53.236;-6.622;2022-08-19T01:41:03;20.67;;;3.72;;
41783;SDS011;27458;53.236;-6.622;2022-08-19T01:43:29;23.10;;;4.35;;
41783;SDS011;27458;53.236;-6.622;2022-08-19T01:45:55;20.27;;;3.40;;
41783;SDS011;27458;53.236;-6.622;2022-08-19T01:48:21;20.73;;;4.35;;
41783;SDS011;27458;53.236;-6.622;2022-08-19T01:50:47;22.35;;;3.42;;
41783;SDS011;27458;53.236;-6.622;2022-08-19T01:53:13;23.02;;;3.78;;
41783;SDS011;27458;53.236;-6.622;2022-08-19T01:55:40;16.67;;;3.00;;
41783;SDS011;27458;53.236;-6.622;2022-08-19T01:58:08;16.52;;;3.35;;
41783;SDS011;27458;53.236;-6.622;2022-08-19T02:00:41;18.52;;;3.92;;
41783;SDS011;27458;53.236;-6.622;2022-08-19T02:03:08;26.75;;;3.63;;
41783;SDS011;27458;53.236;-6.622;2022-08-19T02:05:35;26.58;;;3.50;;
41783;SDS011;27458;53.236;-6.622;2022-08-19T02:08:00;17.85;;;3.25;;
41783;SDS011;27458;53.236;-6.622;2022-08-19T02:10:26;27.27;;;4.00;;
41783;SDS011;27458;53.236;-6.622;2022-08-19T02:12:53;20.50;;;3.38;;
41783;SDS011;27458;53.236;-6.622;2022-08-19T02:15:19;21.98;;;3.33;;
41783;SDS011;27458;53.236;-6.622;2022-08-19T02:17:45;21.30;;;3.60;;
41783;SDS011;27458;53.236;-6.622;2022-08-19T02:20:12;19.48;;;4.15;;
41783;SDS011;27458;53.236;-6.622;2022-08-19T02:22:38;21.92;;;4.05;;
41783;SDS011;27458;53.236;-6.622;2022-08-19T02:25:09;27.08;;;4.95;;
41783;SDS011;27458;53.236;-6.622;2022-08-19T02:27:39;25.10;;;5.00;;
41783;SDS011;27458;53.236;-6.622;2022-08-19T02:30:06;17.60;;;2.88;;
41783;SDS011;27458;53.236;-6.622;2022-08-19T02:32:36;18.67;;;3.47;;
41783;SDS011;27458;53.236;-6.622;2022-08-19T02:35:02;20.98;;;3.65;;
41783;SDS011;27458;53.236;-6.622;2022-08-19T02:37:28;13.15;;;2.60;;
41783;SDS011;27458;53.236;-6.622;2022-08-19T02:40:13;14.48;;;3.22;;
41783;SDS011;27458;53.236;-6.622;2022-08-19T02:42:38;17.70;;;3.92;;
41783;SDS011;27458;53.236;-6.622;2022-08-19T02:45:06;19.48;;;3.55;;
41783;SDS011;27458;53.236;-6.622;2022-08-19T02:47:32;19.63;;;2.78;;
41783;SDS011;27458;53.236;-6.622;2022-08-19T02:50:00;16.98;;;2.83;;
41783;SDS011;27458;53.236;-6.622;2022-08-19T02:52:27;21.38;;;3.33;;
41783;SDS011;27458;53.236;-6.622;2022-08-19T02:54:53;15.40;;;3.47;;
41783;SDS011;27458;53.236;-6.622;2022-08-19T02:57:20;17.55;;;2.67;;
41783;SDS011;27458;53.236;-6.622;2022-08-19T02:59:47;21.15;;;3.50;;
41783;SDS011;27458;53.236;-6.622;2022-08-19T03:02:12;18.85;;;3.42;;
41783;SDS011;27458;53.236;-6.622;2022-08-19T03:04:38;17.33;;;3.20;;
41783;SDS011;27458;53.236;-6.622;2022-08-19T03:07:04;15.02;;;2.45;;
41783;SDS011;27458;53.236;-6.622;2022-08-19T03:09:30;19.15;;;3.50;;
41783;SDS011;27458;53.236;-6.622;2022-08-19T03:11:55;14.98;;;3.08;;
41783;SDS011;27458;53.236;-6.622;2022-08-19T03:14:21;21.38;;;3.03;;
41783;SDS011;27458;53.236;-6.622;2022-08-19T03:16:49;14.88;;;3.13;;
41783;SDS011;27458;53.236;-6.622;2022-08-19T03:19:16;23.83;;;3.67;;
41783;SDS011;27458;53.236;-6.622;2022-08-19T03:21:44;19.35;;;3.70;;
41783;SDS011;27458;53.236;-6.622;2022-08-19T03:24:11;21.10;;;3.38;;
41783;SDS011;27458;53.236;-6.622;2022-08-19T03:26:42;15.90;;;2.47;;
41783;SDS011;27458;53.236;-6.622;2022-08-19T03:29:10;21.67;;;3.28;;
41783;SDS011;27458;53.236;-6.622;2022-08-19T03:31:36;10.90;;;2.63;;
41783;SDS011;27458;53.236;-6.622;2022-08-19T03:34:04;15.60;;;2.30;;
41783;SDS011;27458;53.236;-6.622;2022-08-19T03:36:29;14.75;;;2.55;;
41783;SDS011;27458;53.236;-6.622;2022-08-19T03:38:57;20.27;;;3.47;;
41783;SDS011;27458;53.236;-6.622;2022-08-19T03:41:25;16.15;;;3.28;;
41783;SDS011;27458;53.236;-6.622;2022-08-19T03:43:56;18.90;;;3.30;;
41783;SDS011;27458;53.236;-6.622;2022-08-19T03:46:23;17.90;;;2.78;;
41783;SDS011;27458;53.236;-6.622;2022-08-19T03:48:52;12.02;;;2.22;;
41783;SDS011;27458;53.236;-6.622;2022-08-19T03:51:30;10.18;;;2.35;;
41783;SDS011;27458;53.236;-6.622;2022-08-19T03:53:59;14.27;;;2.45;;
41783;SDS011;27458;53.236;-6.622;2022-08-19T03:56:26;15.18;;;2.70;;
41783;SDS011;27458;53.236;-6.622;2022-08-19T03:58:56;18.25;;;2.67;;
41783;SDS011;27458;53.236;-6.622;2022-08-19T04:01:24;11.90;;;2.42;;
41783;SDS011;27458;53.236;-6.622;2022-08-19T04:03:52;19.05;;;3.38;;
41783;SDS011;27458;53.236;-6.622;2022-08-19T04:06:20;13.40;;;2.72;;
41783;SDS011;27458;53.236;-6.622;2022-08-19T04:08:51;16.65;;;3.10;;
41783;SDS011;27458;53.236;-6.622;2022-08-19T04:11:23;10.07;;;2.30;;
41783;SDS011;27458;53.236;-6.622;2022-08-19T04:13:51;16.15;;;3.10;;
41783;SDS011;27458;53.236;-6.622;2022-08-19T04:16:18;15.23;;;3.53;;
41783;SDS011;27458;53.236;-6.622;2022-08-19T04:18:45;14.60;;;3.03;;
41783;SDS011;27458;53.236;-6.622;2022-08-19T04:21:16;16.27;;;2.60;;
41783;SDS011;27458;53.236;-6.622;2022-08-19T04:23:44;15.02;;;3.40;;
41783;SDS011;27458;53.236;-6.622;2022-08-19T04:26:18;18.08;;;2.80;;
41783;SDS011;27458;53.236;-6.622;2022-08-19T04:28:48;12.60;;;2.25;;
41783;SDS011;27458;53.236;-6.622;2022-08-19T04:31:15;17.05;;;2.65;;
41783;SDS011;27458;53.236;-6.622;2022-08-19T04:33:46;15.50;;;2.83;;
41783;SDS011;27458;53.236;-6.622;2022-08-19T04:36:21;13.88;;;3.22;;
41783;SDS011;27458;53.236;-6.622;2022-08-19T04:38:49;18.38;;;3.22;;
41783;SDS011;27458;53.236;-6.622;2022-08-19T04:41:17;17.73;;;2.57;;
41783;SDS011;27458;53.236;-6.622;2022-08-19T04:44:02;17.17;;;2.92;;
41783;SDS011;27458;53.236;-6.622;2022-08-19T04:46:28;10.23;;;2.63;;
41783;SDS011;27458;53.236;-6.622;2022-08-19T04:48:55;17.98;;;2.97;;
41783;SDS011;27458;53.236;-6.622;2022-08-19T04:51:21;10.80;;;2.40;;
41783;SDS011;27458;53.236;-6.622;2022-08-19T04:53:49;18.38;;;2.58;;
41783;SDS011;27458;53.236;-6.622;2022-08-19T04:56:17;14.98;;;2.95;;
41783;SDS011;27458;53.236;-6.622;2022-08-19T04:58:44;15.70;;;2.42;;
41783;SDS011;27458;53.236;-6.622;2022-08-19T05:01:15;13.75;;;3.20;;
41783;SDS011;27458;53.236;-6.622;2022-08-19T05:03:43;12.93;;;2.72;;
41783;SDS011;27458;53.236;-6.622;2022-08-19T05:06:10;16.55;;;2.25;;
41783;SDS011;27458;53.236;-6.622;2022-08-19T05:08:39;10.88;;;2.20;;
41783;SDS011;27458;53.236;-6.622;2022-08-19T05:11:24;11.98;;;2.33;;
41783;SDS011;27458;53.236;-6.622;2022-08-19T05:13:53;11.68;;;3.00;;
41783;SDS011;27458;53.236;-6.622;2022-08-19T05:16:19;11.18;;;2.80;;
41783;SDS011;27458;53.236;-6.622;2022-08-19T05:18:48;16.95;;;3.08;;
41783;SDS011;27458;53.236;-6.622;2022-08-19T05:21:33;19.15;;;2.20;;
41783;SDS011;27458;53.236;-6.622;2022-08-19T05:24:19;15.00;;;2.60;;
41783;SDS011;27458;53.236;-6.622;2022-08-19T05:26:47;15.18;;;2.53;;
41783;SDS011;27458;53.236;-6.622;2022-08-19T05:29:17;11.25;;;2.05;;
41783;SDS011;27458;53.236;-6.622;2022-08-19T05:31:47;13.23;;;1.90;;
41783;SDS011;27458;53.236;-6.622;2022-08-19T05:34:17;7.50;;;1.60;;
41783;SDS011;27458;53.236;-6.622;2022-08-19T05:36:46;13.55;;;2.03;;
41783;SDS011;27458;53.236;-6.622;2022-08-19T05:39:15;11.98;;;2.40;;
41783;SDS011;27458;53.236;-6.622;2022-08-19T05:41:48;8.73;;;1.92;;
41783;SDS011;27458;53.236;-6.622;2022-08-19T05:44:17;9.18;;;1.67;;
41783;SDS011;27458;53.236;-6.622;2022-08-19T05:46:44;13.15;;;1.80;;
41783;SDS011;27458;53.236;-6.622;2022-08-19T05:49:13;10.77;;;1.67;;
41783;SDS011;27458;53.236;-6.622;2022-08-19T05:51:40;14.27;;;1.85;;
41783;SDS011;27458;53.236;-6.622;2022-08-19T05:54:07;8.98;;;1.77;;
41783;SDS011;27458;53.236;-6.622;2022-08-19T05:56:34;11.77;;;2.10;;
41783;SDS011;27458;53.236;-6.622;2022-08-19T05:59:03;11.67;;;1.67;;
41783;SDS011;27458;53.236;-6.622;2022-08-19T06:01:33;12.25;;;2.05;;
41783;SDS011;27458;53.236;-6.622;2022-08-19T06:04:00;11.32;;;2.40;;
41783;SDS011;27458;53.236;-6.622;2022-08-19T06:06:27;14.57;;;2.08;;
41783;SDS011;27458;53.236;-6.622;2022-08-19T06:08:53;7.57;;;1.23;;
41783;SDS011;27458;53.236;-6.622;2022-08-19T06:11:23;12.73;;;1.85;;
41783;SDS011;27458;53.236;-6.622;2022-08-19T06:14:09;10.40;;;1.77;;
41783;SDS011;27458;53.236;-6.622;2022-08-19T06:16:38;9.63;;;1.58;;
41783;SDS011;27458;53.236;-6.622;2022-08-19T06:19:07;9.93;;;2.13;;
41783;SDS011;27458;53.236;-6.622;2022-08-19T06:21:35;14.88;;;2.35;;
41783;SDS011;27458;53.236;-6.622;2022-08-19T06:24:04;10.25;;;1.77;;
41783;SDS011;27458;53.236;-6.622;2022-08-19T06:26:33;12.88;;;2.00;;
41783;SDS011;27458;53.236;-6.622;2022-08-19T06:29:00;12.23;;;2.00;;
41783;SDS011;27458;53.236;-6.622;2022-08-19T06:31:27;10.05;;;1.90;;
41783;SDS011;27458;53.236;-6.622;2022-08-19T06:33:54;8.13;;;1.90;;
41783;SDS011;27458;53.236;-6.622;2022-08-19T06:39:08;6.78;;;1.90;;
41783;SDS011;27458;53.236;-6.622;2022-08-19T06:44:06;10.07;;;1.95;;
41783;SDS011;27458;53.236;-6.622;2022-08-19T06:46:32;9.95;;;2.25;;
41783;SDS011;27458;53.236;-6.622;2022-08-19T06:48:58;7.63;;;1.98;;
41783;SDS011;27458;53.236;-6.622;2022-08-19T06:51:25;10.43;;;1.60;;
41783;SDS011;27458;53.236;-6.622;2022-08-19T06:53:52;8.50;;;1.92;;
41783;SDS011;27458;53.236;-6.622;2022-08-19T06:56:23;8.55;;;1.70;;
41783;SDS011;27458;53.236;-6.622;2022-08-19T06:58:56;10.35;;;1.45;;
41783;SDS011;27458;53.236;-6.622;2022-08-19T07:01:22;11.73;;;1.83;;
41783;SDS011;27458;53.236;-6.622;2022-08-19T07:03:54;7.60;;;1.42;;
41783;SDS011;27458;53.236;-6.622;2022-08-19T07:06:21;11.55;;;1.88;;
41783;SDS011;27458;53.236;-6.622;2022-08-19T07:08:48;8.18;;;1.40;;
41783;SDS011;27458;53.236;-6.622;2022-08-19T07:11:14;11.32;;;2.03;;
41783;SDS011;27458;53.236;-6.622;2022-08-19T07:13:43;10.55;;;2.08;;
41783;SDS011;27458;53.236;-6.622;2022-08-19T07:16:15;9.93;;;1.60;;
41783;SDS011;27458;53.236;-6.622;2022-08-19T07:18:44;9.73;;;1.48;;
41783;SDS011;27458;53.236;-6.622;2022-08-19T07:21:20;8.23;;;1.70;;
41783;SDS011;27458;53.236;-6.622;2022-08-19T07:23:49;12.57;;;2.30;;
41783;SDS011;27458;53.236;-6.622;2022-08-19T07:26:20;8.25;;;1.48;;
41783;SDS011;27458;53.236;-6.622;2022-08-19T07:28:47;8.85;;;1.58;;
41783;SDS011;27458;53.236;-6.622;2022-08-19T07:31:14;8.90;;;1.65;;
41783;SDS011;27458;53.236;-6.622;2022-08-19T07:33:45;8.15;;;1.42;;
41783;SDS011;27458;53.236;-6.622;2022-08-19T07:36:13;9.70;;;1.45;;
41783;SDS011;27458;53.236;-6.622;2022-08-19T07:38:42;7.32;;;1.70;;
41783;SDS011;27458;53.236;-6.622;2022-08-19T07:41:10;10.55;;;1.83;;
41783;SDS011;27458;53.236;-6.622;2022-08-19T07:43:39;11.37;;;1.67;;
41783;SDS011;27458;53.236;-6.622;2022-08-19T07:46:05;9.50;;;1.63;;
41783;SDS011;27458;53.236;-6.622;2022-08-19T07:48:32;8.30;;;1.45;;
41783;SDS011;27458;53.236;-6.622;2022-08-19T07:51:01;9.13;;;1.98;;
41783;SDS011;27458;53.236;-6.622;2022-08-19T07:53:30;11.73;;;2.13;;
41783;SDS011;27458;53.236;-6.622;2022-08-19T07:55:58;12.35;;;2.13;;
41783;SDS011;27458;53.236;-6.622;2022-08-19T07:58:27;10.55;;;1.88;;
41783;SDS011;27458;53.236;-6.622;2022-08-19T08:00:53;12.13;;;1.58;;
41783;SDS011;27458;53.236;-6.622;2022-08-19T08:03:19;6.05;;;1.38;;
41783;SDS011;27458;53.236;-6.622;2022-08-19T08:06:11;7.82;;;1.58;;
41783;SDS011;27458;53.236;-6.622;2022-08-19T08:08:57;11.50;;;1.63;;
41783;SDS011;27458;53.236;-6.622;2022-08-19T08:11:43;8.15;;;1.23;;
41783;SDS011;27458;53.236;-6.622;2022-08-19T08:14:15;8.30;;;1.42;;
41783;SDS011;27458;53.236;-6.622;2022-08-19T08:16:43;20.52;;;1.90;;
41783;SDS011;27458;53.236;-6.622;2022-08-19T08:19:10;6.70;;;1.20;;
41783;SDS011;27458;53.236;-6.622;2022-08-19T08:21:36;8.93;;;1.58;;
41783;SDS011;27458;53.236;-6.622;2022-08-19T08:24:02;8.30;;;1.90;;
41783;SDS011;27458;53.236;-6.622;2022-08-19T08:26:28;8.65;;;1.30;;
41783;SDS011;27458;53.236;-6.622;2022-08-19T08:28:54;10.73;;;1.50;;
41783;SDS011;27458;53.236;-6.622;2022-08-19T08:31:21;7.38;;;1.20;;
41783;SDS011;27458;53.236;-6.622;2022-08-19T08:33:48;8.60;;;1.30;;
41783;SDS011;27458;53.236;-6.622;2022-08-19T08:36:16;6.53;;;1.23;;
41783;SDS011;27458;53.236;-6.622;2022-08-19T08:38:43;11.65;;;2.53;;
41783;SDS011;27458;53.236;-6.622;2022-08-19T08:41:18;5.43;;;1.40;;
41783;SDS011;27458;53.236;-6.622;2022-08-19T08:43:56;12.60;;;2.13;;
41783;SDS011;27458;53.236;-6.622;2022-08-19T08:46:42;9.98;;;1.35;;
41783;SDS011;27458;53.236;-6.622;2022-08-19T08:55:06;13.18;;;2.38;;
41783;SDS011;27458;53.236;-6.622;2022-08-19T09:00:17;8.80;;;1.05;;
41783;SDS011;27458;53.236;-6.622;2022-08-19T09:02:46;8.85;;;1.63;;
41783;SDS011;27458;53.236;-6.622;2022-08-19T09:05:12;5.07;;;0.85;;
41783;SDS011;27458;53.236;-6.622;2022-08-19T09:10:22;10.82;;;1.20;;
41783;SDS011;27458;53.236;-6.622;2022-08-19T09:15:42;9.15;;;1.48;;
41783;SDS011;27458;53.236;-6.622;2022-08-19T09:18:11;3.83;;;1.00;;
41783;SDS011;27458;53.236;-6.622;2022-08-19T09:20:37;6.45;;;1.15;;
41783;SDS011;27458;53.236;-6.622;2022-08-19T09:23:03;5.38;;;1.10;;
41783;SDS011;27458;53.236;-6.622;2022-08-19T09:25:29;7.25;;;1.40;;
41783;SDS011;27458;53.236;-6.622;2022-08-19T09:27:56;8.32;;;1.40;;
41783;SDS011;27458;53.236;-6.622;2022-08-19T09:30:24;7.45;;;1.08;;
41783;SDS011;27458;53.236;-6.622;2022-08-19T09:32:52;7.43;;;1.15;;
41783;SDS011;27458;53.236;-6.622;2022-08-19T09:35:23;3.25;;;1.05;;
41783;SDS011;27458;53.236;-6.622;2022-08-19T09:37:51;3.88;;;0.80;;
41783;SDS011;27458;53.236;-6.622;2022-08-19T09:40:17;11.18;;;1.50;;
41783;SDS011;27458;53.236;-6.622;2022-08-19T09:42:44;10.98;;;1.50;;
41783;SDS011;27458;53.236;-6.622;2022-08-19T09:45:12;7.75;;;1.45;;
41783;SDS011;27458;53.236;-6.622;2022-08-19T09:47:39;8.40;;;1.75;;
41783;SDS011;27458;53.236;-6.622;2022-08-19T09:50:05;8.57;;;1.70;;
41783;SDS011;27458;53.236;-6.622;2022-08-19T09:52:33;7.68;;;1.40;;
41783;SDS011;27458;53.236;-6.622;2022-08-19T09:54:59;5.95;;;1.98;;
41783;SDS011;27458;53.236;-6.622;2022-08-19T09:57:25;19.38;;;6.25;;
41783;SDS011;27458;53.236;-6.622;2022-08-19T09:59:51;11.93;;;1.60;;
41783;SDS011;27458;53.236;-6.622;2022-08-19T10:02:18;9.25;;;1.65;;
41783;SDS011;27458;53.236;-6.622;2022-08-19T10:04:47;8.73;;;1.67;;
41783;SDS011;27458;53.236;-6.622;2022-08-19T10:07:31;9.57;;;1.38;;
41783;SDS011;27458;53.236;-6.622;2022-08-19T10:09:57;9.68;;;1.48;;
41783;SDS011;27458;53.236;-6.622;2022-08-19T10:12:23;12.32;;;1.90;;
41783;SDS011;27458;53.236;-6.622;2022-08-19T10:14:48;7.47;;;1.75;;
41783;SDS011;27458;53.236;-6.622;2022-08-19T10:17:16;5.07;;;0.93;;
41783;SDS011;27458;53.236;-6.622;2022-08-19T10:19:42;7.30;;;2.05;;
41783;SDS011;27458;53.236;-6.622;2022-08-19T10:22:08;10.57;;;2.80;;
41783;SDS011;27458;53.236;-6.622;2022-08-19T10:24:38;6.45;;;1.70;;
41783;SDS011;27458;53.236;-6.622;2022-08-19T10:27:04;4.38;;;1.00;;
41783;SDS011;27458;53.236;-6.622;2022-08-19T10:29:33;9.15;;;2.10;;
41783;SDS011;27458;53.236;-6.622;2022-08-19T10:32:02;9.00;;;1.27;;
41783;SDS011;27458;53.236;-6.622;2022-08-19T10:34:30;4.78;;;0.80;;
41783;SDS011;27458;53.236;-6.622;2022-08-19T10:36:57;5.85;;;1.33;;
41783;SDS011;27458;53.236;-6.622;2022-08-19T10:39:23;3.78;;;0.95;;
41783;SDS011;27458;53.236;-6.622;2022-08-19T10:41:49;5.90;;;1.08;;
41783;SDS011;27458;53.236;-6.622;2022-08-19T10:44:14;8.25;;;1.70;;
41783;SDS011;27458;53.236;-6.622;2022-08-19T10:46:42;4.22;;;0.88;;
41783;SDS011;27458;53.236;-6.622;2022-08-19T10:49:10;5.75;;;0.85;;
41783;SDS011;27458;53.236;-6.622;2022-08-19T10:51:37;6.03;;;1.10;;
41783;SDS011;27458;53.236;-6.622;2022-08-19T10:54:22;13.88;;;2.05;;
41783;SDS011;27458;53.236;-6.622;2022-08-19T10:57:08;5.07;;;1.10;;
41783;SDS011;27458;53.236;-6.622;2022-08-19T10:59:34;9.63;;;1.73;;
41783;SDS011;27458;53.236;-6.622;2022-08-19T11:02:01;8.85;;;1.48;;
41783;SDS011;27458;53.236;-6.622;2022-08-19T11:04:28;16.75;;;1.92;;
41783;SDS011;27458;53.236;-6.622;2022-08-19T11:06:54;10.25;;;1.30;;
41783;SDS011;27458;53.236;-6.622;2022-08-19T11:09:22;4.93;;;1.17;;
41783;SDS011;27458;53.236;-6.622;2022-08-19T11:11:49;7.40;;;1.42;;
41783;SDS011;27458;53.236;-6.622;2022-08-19T11:14:16;3.20;;;0.93;;
41783;SDS011;27458;53.236;-6.622;2022-08-19T11:16:44;6.63;;;1.70;;
41783;SDS011;27458;53.236;-6.622;2022-08-19T11:19:10;8.32;;;1.85;;
41783;SDS011;27458;53.236;-6.622;2022-08-19T11:21:39;12.68;;;2.75;;
41783;SDS011;27458;53.236;-6.622;2022-08-19T11:24:08;9.00;;;1.90;;
41783;SDS011;27458;53.236;-6.622;2022-08-19T11:26:43;15.85;;;2.80;;
41783;SDS011;27458;53.236;-6.622;2022-08-19T11:29:10;11.68;;;1.67;;
41783;SDS011;27458;53.236;-6.622;2022-08-19T11:31:38;7.07;;;1.63;;
41783;SDS011;27458;53.236;-6.622;2022-08-19T11:34:07;12.05;;;1.95;;
41783;SDS011;27458;53.236;-6.622;2022-08-19T11:36:36;9.55;;;2.35;;
41783;SDS011;27458;53.236;-6.622;2022-08-19T11:39:05;10.77;;;1.85;;
41783;SDS011;27458;53.236;-6.622;2022-08-19T11:41:32;9.13;;;2.13;;
41783;SDS011;27458;53.236;-6.622;2022-08-19T11:43:58;18.67;;;2.92;;
41783;SDS011;27458;53.236;-6.622;2022-08-19T11:46:24;7.00;;;2.00;;
41783;SDS011;27458;53.236;-6.622;2022-08-19T11:48:54;9.57;;;1.90;;
41783;SDS011;27458;53.236;-6.622;2022-08-19T11:51:21;7.85;;;1.65;;
41783;SDS011;27458;53.236;-6.622;2022-08-19T11:53:49;6.85;;;2.00;;
41783;SDS011;27458;53.236;-6.622;2022-08-19T11:56:16;8.80;;;2.05;;
41783;SDS011;27458;53.236;-6.622;2022-08-19T11:58:43;7.03;;;1.60;;
41783;SDS011;27458;53.236;-6.622;2022-08-19T12:01:14;7.68;;;1.70;;
41783;SDS011;27458;53.236;-6.622;2022-08-19T12:03:42;6.32;;;1.55;;
41783;SDS011;27458;53.236;-6.622;2022-08-19T12:06:13;9.40;;;2.00;;
41783;SDS011;27458;53.236;-6.622;2022-08-19T12:08:41;14.60;;;2.40;;
41783;SDS011;27458;53.236;-6.622;2022-08-19T12:11:08;9.38;;;2.40;;
41783;SDS011;27458;53.236;-6.622;2022-08-19T12:13:34;10.60;;;2.38;;
41783;SDS011;27458;53.236;-6.622;2022-08-19T12:16:07;10.10;;;2.33;;
41783;SDS011;27458;53.236;-6.622;2022-08-19T12:18:37;14.63;;;2.38;;
41783;SDS011;27458;53.236;-6.622;2022-08-19T12:21:22;9.57;;;2.08;;
41783;SDS011;27458;53.236;-6.622;2022-08-19T12:23:53;10.32;;;2.47;;
41783;SDS011;27458;53.236;-6.622;2022-08-19T12:26:20;6.45;;;1.65;;
41783;SDS011;27458;53.236;-6.622;2022-08-19T12:28:48;18.10;;;2.55;;
41783;SDS011;27458;53.236;-6.622;2022-08-19T12:31:15;9.82;;;2.33;;
41783;SDS011;27458;53.236;-6.622;2022-08-19T12:33:42;7.22;;;1.90;;
41783;SDS011;27458;53.236;-6.622;2022-08-19T12:36:09;11.13;;;2.13;;
41783;SDS011;27458;53.236;-6.622;2022-08-19T12:38:37;9.00;;;2.42;;
41783;SDS011;27458;53.236;-6.622;2022-08-19T12:41:04;8.35;;;2.05;;
41783;SDS011;27458;53.236;-6.622;2022-08-19T12:43:32;9.25;;;2.10;;
41783;SDS011;27458;53.236;-6.622;2022-08-19T12:45:59;14.68;;;2.42;;
41783;SDS011;27458;53.236;-6.622;2022-08-19T12:48:25;11.75;;;1.90;;
41783;SDS011;27458;53.236;-6.622;2022-08-19T12:50:51;12.30;;;2.08;;
41783;SDS011;27458;53.236;-6.622;2022-08-19T12:53:16;7.97;;;2.10;;
41783;SDS011;27458;53.236;-6.622;2022-08-19T12:55:42;10.50;;;2.30;;
41783;SDS011;27458;53.236;-6.622;2022-08-19T12:58:08;7.55;;;2.00;;
41783;SDS011;27458;53.236;-6.622;2022-08-19T13:00:34;8.90;;;2.10;;
41783;SDS011;27458;53.236;-6.622;2022-08-19T13:03:00;8.73;;;3.00;;
41783;SDS011;27458;53.236;-6.622;2022-08-19T13:05:27;6.57;;;1.92;;
41783;SDS011;27458;53.236;-6.622;2022-08-19T13:07:55;7.15;;;2.30;;
41783;SDS011;27458;53.236;-6.622;2022-08-19T13:10:25;35.88;;;3.47;;
41783;SDS011;27458;53.236;-6.622;2022-08-19T13:13:05;10.02;;;1.55;;
41783;SDS011;27458;53.236;-6.622;2022-08-19T13:15:33;7.53;;;1.70;;
41783;SDS011;27458;53.236;-6.622;2022-08-19T13:18:04;7.15;;;1.80;;
41783;SDS011;27458;53.236;-6.622;2022-08-19T13:20:31;10.70;;;1.90;;
41783;SDS011;27458;53.236;-6.622;2022-08-19T13:22:56;6.35;;;1.90;;
41783;SDS011;27458;53.236;-6.622;2022-08-19T13:25:22;7.30;;;1.67;;
41783;SDS011;27458;53.236;-6.622;2022-08-19T13:27:48;8.77;;;1.83;;
41783;SDS011;27458;53.236;-6.622;2022-08-19T13:30:16;7.32;;;2.03;;
41783;SDS011;27458;53.236;-6.622;2022-08-19T13:33:06;7.38;;;1.70;;
41783;SDS011;27458;53.236;-6.622;2022-08-19T13:35:42;9.23;;;1.65;;
41783;SDS011;27458;53.236;-6.622;2022-08-19T13:38:11;7.38;;;1.67;;
41783;SDS011;27458;53.236;-6.622;2022-08-19T13:40:37;9.93;;;1.90;;
41783;SDS011;27458;53.236;-6.622;2022-08-19T13:43:04;4.95;;;1.13;;
41783;SDS011;27458;53.236;-6.622;2022-08-19T13:45:31;10.88;;;2.08;;
41783;SDS011;27458;53.236;-6.622;2022-08-19T13:47:59;7.72;;;1.38;;
41783;SDS011;27458;53.236;-6.622;2022-08-19T13:50:26;4.35;;;1.30;;
41783;SDS011;27458;53.236;-6.622;2022-08-19T13:52:54;6.07;;;1.60;;
41783;SDS011;27458;53.236;-6.622;2022-08-19T13:55:21;8.05;;;1.50;;
41783;SDS011;27458;53.236;-6.622;2022-08-19T13:57:54;5.35;;;1.52;;
41783;SDS011;27458;53.236;-6.622;2022-08-19T14:00:23;4.75;;;1.48;;
41783;SDS011;27458;53.236;-6.622;2022-08-19T14:02:51;64.85;;;6.20;;
41783;SDS011;27458;53.236;-6.622;2022-08-19T14:05:19;5.10;;;1.00;;
41783;SDS011;27458;53.236;-6.622;2022-08-19T14:07:45;13.73;;;1.90;;
41783;SDS011;27458;53.236;-6.622;2022-08-19T14:10:12;7.63;;;1.40;;
41783;SDS011;27458;53.236;-6.622;2022-08-19T14:12:39;8.40;;;1.38;;
41783;SDS011;27458;53.236;-6.622;2022-08-19T14:15:05;11.95;;;1.42;;
41783;SDS011;27458;53.236;-6.622;2022-08-19T14:17:33;6.57;;;1.45;;
41783;SDS011;27458;53.236;-6.622;2022-08-19T14:20:05;4.22;;;1.00;;
41783;SDS011;27458;53.236;-6.622;2022-08-19T14:22:36;7.32;;;1.77;;
41783;SDS011;27458;53.236;-6.622;2022-08-19T14:25:04;13.23;;;1.25;;
41783;SDS011;27458;53.236;-6.622;2022-08-19T14:27:35;29.15;;;2.38;;
41783;SDS011;27458;53.236;-6.622;2022-08-19T14:30:02;3.67;;;1.00;;
41783;SDS011;27458;53.236;-6.622;2022-08-19T14:32:29;4.07;;;0.93;;
41783;SDS011;27458;53.236;-6.622;2022-08-19T14:34:56;8.05;;;1.23;;
41783;SDS011;27458;53.236;-6.622;2022-08-19T14:37:22;27.52;;;2.13;;
41783;SDS011;27458;53.236;-6.622;2022-08-19T14:39:47;6.75;;;1.00;;
41783;SDS011;27458;53.236;-6.622;2022-08-19T14:42:13;3.55;;;0.77;;
41783;SDS011;27458;53.236;-6.622;2022-08-19T14:44:39;3.88;;;1.00;;
41783;SDS011;27458;53.236;-6.622;2022-08-19T14:47:06;5.70;;;1.10;;
41783;SDS011;27458;53.236;-6.622;2022-08-19T14:49:32;8.55;;;1.65;;
41783;SDS011;27458;53.236;-6.622;2022-08-19T14:51:58;8.93;;;2.10;;
41783;SDS011;27458;53.236;-6.622;2022-08-19T14:54:24;7.85;;;2.03;;
41783;SDS011;27458;53.236;-6.622;2022-08-19T14:56:50;12.10;;;3.50;;
41783;SDS011;27458;53.236;-6.622;2022-08-19T14:59:16;4.70;;;1.77;;